Time;durP1;ratioP1;P1;durP2;ratioP2;P2;SDS_P1;SDS_P2;PMS_P1;PMS_P2;Temp;Humidity;BMP_temperature;BMP_pressure;BME280_temperature;BME280_humidity;BME280_pressure;Samples;Min_cycle;Max_cycle;Signal;HPM_P1;HPM_P2
2022/09/19 00:01:12;;;;;;;3.67;1.17;;;17.70;65.20;;;;;;5050411;28;20057;-73
2022/09/19 00:03:39;;;;;;;2.30;1.10;;;17.70;65.20;;;;;;5061186;28;20056;-72
2022/09/19 00:06:06;;;;;;;2.47;1.30;;;17.70;65.20;;;;;;5070933;28;20665;-73
2022/09/19 00:08:33;;;;;;;3.67;1.38;;;17.70;65.20;;;;;;5070841;28;20055;-72
2022/09/19 00:11:01;;;;;;;1.90;1.10;;;17.70;65.20;;;;;;5070588;28;20118;-72
2022/09/19 00:13:28;;;;;;;3.67;1.30;;;17.50;67.50;;;;;;5062396;28;20441;-72
2022/09/19 00:15:55;;;;;;;3.03;1.13;;;17.70;65.20;;;;;;5050697;28;20049;-72
2022/09/19 00:18:23;;;;;;;1.70;1.10;;;18.60;68.10;;;;;;5051647;28;20052;-72
2022/09/19 00:20:50;;;;;;;2.60;1.17;;;17.70;65.20;;;;;;5050230;28;20063;-72
2022/09/19 00:26:02;;;;;;;2.85;1.15;;;17.70;65.20;;;;;;5070525;28;20057;-72
2022/09/19 00:28:28;;;;;;;2.92;1.20;;;17.70;65.20;;;;;;5070394;28;20056;-72
2022/09/19 00:30:55;;;;;;;4.63;1.58;;;17.60;65.10;;;;;;5070457;28;20057;-72
2022/09/19 00:33:27;;;;;;;2.20;1.05;;;17.60;65.10;;;;;;5062824;28;20063;-72
2022/09/19 00:35:54;;;;;;;2.60;1.20;;;17.70;68.40;;;;;;5050055;28;20136;-72
2022/09/19 00:38:21;;;;;;;1.83;1.13;;;17.70;65.10;;;;;;5050346;28;20510;-73
2022/09/19 00:40:48;;;;;;;1.77;1.08;;;17.70;65.10;;;;;;5050179;28;20057;-72
2022/09/19 00:43:15;;;;;;;3.78;1.20;;;18.60;68.10;;;;;;5056898;28;20083;-72
2022/09/19 00:45:42;;;;;;;2.30;1.00;;;17.70;65.10;;;;;;5070476;28;20056;-72
2022/09/19 00:48:08;;;;;;;1.85;1.23;;;17.60;68.30;;;;;;5071186;28;20052;-73
2022/09/19 00:50:36;;;;;;;2.25;1.00;;;18.70;68.20;;;;;;5070270;28;20470;-72
2022/09/19 00:53:04;;;;;;;2.35;1.10;;;17.60;67.90;;;;;;5066434;28;20051;-73
2022/09/19 00:55:31;;;;;;;2.63;0.90;;;17.60;65.10;;;;;;5049978;28;20049;-72
2022/09/19 00:58:05;;;;;;;2.20;1.20;;;17.60;65.10;;;;;;5051390;28;20462;-72
2022/09/19 01:00:33;;;;;;;2.88;1.15;;;17.60;65.60;;;;;;5049831;28;20072;-72
2022/09/19 01:03:00;;;;;;;3.58;1.10;;;17.60;65.00;;;;;;5054102;28;20131;-72
2022/09/19 01:05:31;;;;;;;3.55;1.17;;;17.60;65.10;;;;;;5070064;28;20512;-73
2022/09/19 01:08:21;;;;;;;2.33;1.02;;;16.90;67.50;;;;;;5071451;28;20403;-72
2022/09/19 01:11:19;;;;;;;1.17;0.85;;;17.70;65.00;;;;;;5070204;28;20080;-72
2022/09/19 01:13:50;;;;;;;3.58;1.35;;;17.60;65.00;;;;;;5031660;28;20067;-72
2022/09/19 01:16:20;;;;;;;2.03;1.10;;;17.10;66.40;;;;;;5030032;28;20107;-72
2022/09/19 01:18:48;;;;;;;2.38;1.08;;;17.60;65.00;;;;;;5029919;28;20053;-72
2022/09/19 01:24:28;;;;;;;2.10;1.02;;;17.60;68.00;;;;;;5071466;28;20041;-72
2022/09/19 01:27:09;;;;;;;2.00;0.93;;;17.60;65.00;;;;;;5073365;28;20091;-72
2022/09/19 01:29:38;;;;;;;2.05;1.17;;;17.70;65.10;;;;;;5073673;28;20048;-72
2022/09/19 01:32:05;;;;;;;1.58;0.98;;;17.60;65.00;;;;;;5065003;28;20049;-72
2022/09/19 01:34:33;;;;;;;2.50;1.00;;;17.60;65.00;;;;;;5053584;28;20413;-72
2022/09/19 01:37:04;;;;;;;1.77;1.08;;;17.60;65.00;;;;;;5053206;28;20053;-72
2022/09/19 01:39:31;;;;;;;3.40;1.27;;;17.60;65.00;;;;;;5052995;28;20059;-72
2022/09/19 01:41:59;;;;;;;2.28;1.20;;;17.60;65.00;;;;;;5059876;28;20053;-72
2022/09/19 01:44:27;;;;;;;2.53;1.27;;;17.10;67.90;;;;;;5073299;28;20056;-72
2022/09/19 01:47:00;;;;;;;1.33;0.93;;;17.60;65.00;;;;;;5074354;28;20405;-72
2022/09/19 01:49:35;;;;;;;2.30;1.10;;;18.40;68.00;;;;;;5073019;28;20060;-72
2022/09/19 01:52:05;;;;;;;2.70;1.10;;;17.60;65.00;;;;;;5065792;28;20060;-72
2022/09/19 01:54:36;;;;;;;3.63;1.10;;;17.60;64.90;;;;;;5052897;28;20064;-72
2022/09/19 01:57:09;;;;;;;1.85;1.15;;;17.60;64.90;;;;;;5053087;28;20053;-72
2022/09/19 01:59:47;;;;;;;1.70;0.90;;;17.60;64.90;;;;;;5054131;28;20417;-72
2022/09/19 02:02:22;;;;;;;4.07;1.15;;;17.60;64.90;;;;;;5060890;28;20151;-72
2022/09/19 02:04:50;;;;;;;3.67;1.10;;;17.60;64.90;;;;;;5072977;28;20067;-72
2022/09/19 02:07:20;;;;;;;3.42;1.27;;;17.60;65.50;;;;;;5072976;28;20112;-72
2022/09/19 02:09:48;;;;;;;1.85;1.10;;;17.60;64.90;;;;;;5072839;28;20059;-72
2022/09/19 02:12:16;;;;;;;2.65;1.27;;;17.40;67.20;;;;;;5063964;28;20422;-72
2022/09/19 02:14:44;;;;;;;3.78;1.30;;;17.60;64.90;;;;;;5053873;28;20084;-72
2022/09/19 02:17:12;;;;;;;2.92;1.30;;;17.60;68.10;;;;;;5052731;28;20060;-72
2022/09/19 02:19:42;;;;;;;2.05;0.98;;;17.60;64.90;;;;;;5052320;28;20413;-72
2022/09/19 02:22:11;;;;;;;2.95;1.08;;;17.60;64.90;;;;;;5059468;28;20400;-72
2022/09/19 02:24:38;;;;;;;2.17;1.00;;;17.60;64.90;;;;;;5072407;28;20052;-72
2022/09/19 02:27:09;;;;;;;2.58;1.08;;;17.60;64.90;;;;;;5072395;28;20052;-72
2022/09/19 02:29:36;;;;;;;1.77;0.90;;;17.60;64.90;;;;;;5072622;28;20048;-72
2022/09/19 02:32:02;;;;;;;2.40;0.95;;;17.60;64.90;;;;;;5066087;28;20410;-72
2022/09/19 02:34:29;;;;;;;2.08;0.95;;;17.60;64.90;;;;;;5052242;28;20486;-72
2022/09/19 02:37:01;;;;;;;2.55;0.93;;;17.60;67.20;;;;;;5051856;28;20059;-72
2022/09/19 02:39:30;;;;;;;3.20;1.15;;;17.60;64.90;;;;;;5052014;28;20410;-72
2022/09/19 02:41:59;;;;;;;4.10;1.35;;;17.60;64.90;;;;;;5057121;28;20060;-72
2022/09/19 02:44:30;;;;;;;3.42;1.13;;;17.60;64.90;;;;;;5072055;28;20448;-72
2022/09/19 02:47:00;;;;;;;1.55;0.90;;;17.60;64.90;;;;;;5071843;28;20052;-72
2022/09/19 02:49:36;;;;;;;1.30;0.85;;;17.10;67.20;;;;;;5072149;28;20102;-72
2022/09/19 02:52:06;;;;;;;2.72;1.17;;;16.80;67.00;;;;;;5067405;28;20049;-72
2022/09/19 02:54:34;;;;;;;2.03;0.75;;;17.60;64.90;;;;;;5052217;28;20076;-72
2022/09/19 02:57:02;;;;;;;3.25;1.40;;;17.30;67.20;;;;;;5052050;28;20136;-72
2022/09/19 02:59:29;;;;;;;2.28;0.95;;;17.60;64.80;;;;;;5051800;28;20064;-72
2022/09/19 03:01:58;;;;;;;1.67;0.93;;;17.60;64.80;;;;;;5055759;28;20053;-72
2022/09/19 03:04:29;;;;;;;2.90;1.10;;;17.60;64.80;;;;;;5071700;28;20507;-73
2022/09/19 03:06:58;;;;;;;2.03;1.20;;;17.60;64.80;;;;;;5071583;28;20052;-73
2022/09/19 03:09:28;;;;;;;2.05;0.98;;;17.60;64.80;;;;;;5071757;28;20515;-73
2022/09/19 03:11:57;;;;;;;2.78;1.00;;;17.70;67.50;;;;;;5069514;28;20049;-73
2022/09/19 03:14:24;;;;;;;4.15;1.15;;;18.60;67.90;;;;;;5071652;28;20139;-73
2022/09/19 03:16:54;;;;;;;2.63;1.08;;;17.60;64.90;;;;;;5072502;28;20055;-73
2022/09/19 03:19:20;;;;;;;2.85;1.08;;;17.60;64.80;;;;;;5072630;28;20040;-73
2022/09/19 03:21:47;;;;;;;2.15;1.00;;;17.60;64.80;;;;;;5068033;28;20052;-73
2022/09/19 03:24:16;;;;;;;1.77;0.95;;;17.60;64.80;;;;;;5051540;28;20059;-73
2022/09/19 03:26:44;;;;;;;1.98;0.90;;;17.60;64.80;;;;;;5051430;28;20136;-73
2022/09/19 03:29:11;;;;;;;3.03;1.30;;;17.60;64.80;;;;;;5051535;28;20140;-73
2022/09/19 03:31:38;;;;;;;2.58;1.20;;;18.00;67.70;;;;;;5052299;28;20504;-73
2022/09/19 03:34:04;;;;;;;2.03;0.80;;;17.60;64.80;;;;;;5071400;28;20504;-73
2022/09/19 03:36:33;;;;;;;1.58;0.90;;;17.60;64.80;;;;;;5070889;28;20062;-73
2022/09/19 03:39:01;;;;;;;3.30;1.10;;;17.90;67.60;;;;;;5071152;28;20056;-73
2022/09/19 03:41:29;;;;;;;2.65;1.00;;;18.40;68.00;;;;;;5070299;28;20607;-73
2022/09/19 03:44:00;;;;;;;2.00;1.00;;;17.60;64.80;;;;;;5031232;28;20053;-73
2022/09/19 03:46:27;;;;;;;2.78;1.00;;;17.90;66.60;;;;;;5030946;28;20482;-72
2022/09/19 03:48:54;;;;;;;2.55;0.90;;;17.70;67.80;;;;;;5030866;28;20053;-73
2022/09/19 03:51:21;;;;;;;3.20;1.52;;;17.60;64.80;;;;;;5030986;28;20079;-72
2022/09/19 03:53:48;;;;;;;2.90;1.20;;;17.60;64.70;;;;;;5070135;28;20050;-73
2022/09/19 03:56:16;;;;;;;2.83;1.00;;;17.30;65.80;;;;;;5071153;28;20114;-72
2022/09/19 03:58:43;;;;;;;2.80;1.17;;;17.60;64.80;;;;;;5070932;28;20080;-73
2022/09/19 04:01:12;;;;;;;1.85;0.95;;;17.60;64.70;;;;;;5070366;28;20052;-72
2022/09/19 04:03:39;;;;;;;2.92;1.00;;;17.60;64.80;;;;;;5052948;28;20101;-72
2022/09/19 04:06:06;;;;;;;2.33;1.13;;;17.60;64.80;;;;;;5050922;28;20048;-72
2022/09/19 04:08:33;;;;;;;3.72;1.10;;;17.60;64.80;;;;;;5051871;28;20055;-73
2022/09/19 04:11:00;;;;;;;2.42;1.08;;;17.60;64.70;;;;;;5051577;28;20044;-72
2022/09/19 04:13:28;;;;;;;2.80;1.00;;;17.60;64.80;;;;;;5065806;28;20056;-72
2022/09/19 04:15:55;;;;;;;4.18;1.10;;;17.60;64.70;;;;;;5070540;28;20052;-72
2022/09/19 04:18:23;;;;;;;2.95;1.27;;;17.60;65.30;;;;;;5070522;28;20056;-72
2022/09/19 04:20:50;;;;;;;1.95;1.20;;;18.30;67.70;;;;;;5071072;28;20544;-72
2022/09/19 04:23:17;;;;;;;2.83;1.30;;;17.60;64.70;;;;;;5056557;28;20061;-72
2022/09/19 04:25:44;;;;;;;1.88;0.93;;;17.60;64.70;;;;;;5050599;28;20055;-72
2022/09/19 04:28:11;;;;;;;2.90;1.33;;;17.60;64.70;;;;;;5050338;28;20091;-72
2022/09/19 04:30:38;;;;;;;2.35;1.00;;;17.60;64.70;;;;;;5050144;28;20134;-73
2022/09/19 04:33:05;;;;;;;2.40;0.90;;;17.60;67.40;;;;;;5054581;28;20056;-72
2022/09/19 04:35:34;;;;;;;3.40;1.15;;;17.60;64.70;;;;;;5063827;28;20065;-72
2022/09/19 04:38:01;;;;;;;2.50;1.10;;;17.60;64.70;;;;;;5051217;28;20494;-72
2022/09/19 04:40:28;;;;;;;1.85;0.98;;;17.60;64.70;;;;;;5050249;28;20081;-72
2022/09/19 04:42:56;;;;;;;1.52;0.90;;;17.60;64.70;;;;;;5060940;28;20057;-73
2022/09/19 04:45:23;;;;;;;1.75;0.90;;;17.60;64.70;;;;;;5071687;28;20048;-72
2022/09/19 04:47:49;;;;;;;2.55;1.20;;;17.60;64.70;;;;;;5070349;28;20055;-73
2022/09/19 04:50:17;;;;;;;2.88;1.02;;;17.40;67.70;;;;;;5069921;28;20063;-72
2022/09/19 04:52:45;;;;;;;1.42;0.90;;;17.70;67.50;;;;;;5062945;28;20049;-73
2022/09/19 04:55:12;;;;;;;4.57;1.10;;;17.60;67.10;;;;;;5050163;28;20135;-73
2022/09/19 04:57:39;;;;;;;2.63;1.10;;;17.60;64.70;;;;;;5050169;28;20060;-73
2022/09/19 05:00:07;;;;;;;1.45;0.80;;;17.60;64.70;;;;;;5054157;28;20408;-72
2022/09/19 05:02:34;;;;;;;1.90;0.90;;;17.60;64.70;;;;;;5060385;28;20105;-72
2022/09/19 05:05:01;;;;;;;2.58;1.10;;;17.60;64.70;;;;;;5073414;28;20052;-72
2022/09/19 05:07:33;;;;;;;1.85;1.20;;;17.60;64.70;;;;;;5073858;28;20052;-72
2022/09/19 05:10:02;;;;;;;3.03;1.00;;;17.60;64.70;;;;;;5073859;28;20139;-72
2022/09/19 05:12:29;;;;;;;2.28;1.17;;;17.50;67.30;;;;;;5067753;28;20383;-73
2022/09/19 05:14:56;;;;;;;2.03;0.93;;;16.80;64.30;;;;;;5053990;28;20053;-73
2022/09/19 05:17:23;;;;;;;2.10;0.85;;;18.80;68.10;;;;;;5053632;28;20055;-72
2022/09/19 05:19:49;;;;;;;2.72;1.00;;;17.60;64.70;;;;;;5051728;28;20083;-72
2022/09/19 05:22:16;;;;;;;2.38;1.10;;;17.60;65.20;;;;;;5053397;28;20063;-73
2022/09/19 05:24:43;;;;;;;1.95;1.00;;;17.60;64.70;;;;;;5054726;28;20045;-73
2022/09/19 05:27:12;;;;;;;3.45;1.10;;;17.60;64.70;;;;;;5053631;28;20486;-73
2022/09/19 05:29:39;;;;;;;2.72;1.08;;;17.60;64.70;;;;;;5053524;28;20084;-73
2022/09/19 05:32:06;;;;;;;1.92;0.98;;;17.60;64.70;;;;;;5056722;28;20403;-73
2022/09/19 05:34:33;;;;;;;1.73;1.00;;;17.50;67.40;;;;;;5073681;28;20083;-72
2022/09/19 05:37:00;;;;;;;1.50;0.98;;;17.60;64.70;;;;;;5073357;28;20382;-73
2022/09/19 05:39:27;;;;;;;1.80;1.13;;;17.60;64.70;;;;;;5073276;28;20063;-73
2022/09/19 05:41:53;;;;;;;1.73;0.90;;;17.60;64.70;;;;;;5071948;28;20058;-73
2022/09/19 05:44:22;;;;;;;1.65;1.08;;;17.60;64.60;;;;;;5053309;28;20061;-73
2022/09/19 05:46:51;;;;;;;3.25;1.08;;;17.70;67.90;;;;;;5053065;28;20053;-72
2022/09/19 05:49:18;;;;;;;2.80;1.08;;;17.70;67.50;;;;;;5054367;28;20055;-72
2022/09/19 05:51:44;;;;;;;1.70;0.80;;;17.60;64.60;;;;;;5053027;28;20559;-72
2022/09/19 05:54:10;;;;;;;1.90;0.90;;;17.60;64.60;;;;;;5072250;28;20067;-72
2022/09/19 05:56:37;;;;;;;2.45;1.05;;;17.70;64.70;;;;;;5070725;28;20474;-73
2022/09/19 05:59:04;;;;;;;2.17;1.00;;;17.60;64.60;;;;;;5053171;28;20405;-73
2022/09/19 06:01:32;;;;;;;3.40;1.13;;;17.60;64.70;;;;;;5053108;28;20048;-73
2022/09/19 06:03:59;;;;;;;2.70;1.05;;;17.70;64.70;;;;;;5053348;28;20051;-74
2022/09/19 06:06:27;;;;;;;2.85;1.10;;;17.80;66.20;;;;;;5052345;28;20545;-72
2022/09/19 06:08:56;;;;;;;3.83;1.08;;;17.60;64.60;;;;;;5052999;28;20056;-73
2022/09/19 06:11:23;;;;;;;2.35;1.00;;;17.60;64.60;;;;;;5061235;28;20088;-73
2022/09/19 06:16:36;;;;;;;2.45;1.05;;;17.60;64.60;;;;;;5052663;28;20529;-73
2022/09/19 06:19:02;;;;;;;1.63;0.82;;;17.60;67.50;;;;;;5051463;28;20564;-73
2022/09/19 06:21:31;;;;;;;4.10;1.20;;;17.70;64.70;;;;;;5051744;28;20043;-73
2022/09/19 06:23:57;;;;;;;2.30;0.80;;;17.60;64.60;;;;;;5053150;28;20134;-74
2022/09/19 06:26:26;;;;;;;2.60;1.00;;;17.60;65.80;;;;;;5051224;28;20668;-73
2022/09/19 06:28:53;;;;;;;2.15;0.93;;;17.60;67.40;;;;;;5052088;28;20139;-73
2022/09/19 06:31:20;;;;;;;2.17;1.00;;;17.60;64.60;;;;;;5053920;28;20123;-73
2022/09/19 06:33:48;;;;;;;2.35;1.00;;;17.90;67.00;;;;;;5054519;28;20058;-72
2022/09/19 06:36:15;;;;;;;1.90;1.02;;;17.60;65.90;;;;;;5051675;28;20417;-72
2022/09/19 06:38:42;;;;;;;2.33;1.02;;;17.60;67.20;;;;;;5048815;28;20059;-73
2022/09/19 06:41:09;;;;;;;2.65;0.85;;;17.70;67.40;;;;;;5058634;28;20135;-72
2022/09/19 06:43:36;;;;;;;1.90;0.82;;;17.70;64.60;;;;;;5072448;28;20056;-72
2022/09/19 06:46:03;;;;;;;1.90;1.10;;;17.70;64.60;;;;;;5064363;28;20056;-73
2022/09/19 06:48:30;;;;;;;3.28;1.15;;;17.60;66.70;;;;;;5051330;28;20052;-73
2022/09/19 06:50:58;;;;;;;2.17;1.00;;;17.70;64.60;;;;;;5050887;28;20048;-73
2022/09/19 06:53:25;;;;;;;2.50;0.93;;;17.70;64.60;;;;;;5051546;28;20056;-73
2022/09/19 06:55:52;;;;;;;3.53;1.13;;;17.70;64.60;;;;;;5051723;28;20508;-72
2022/09/19 06:58:19;;;;;;;3.13;0.95;;;17.70;64.70;;;;;;5051737;28;20102;-73
2022/09/19 07:00:46;;;;;;;1.75;0.98;;;17.70;64.70;;;;;;5051520;28;20049;-73
2022/09/19 07:03:15;;;;;;;2.60;1.20;;;17.70;64.70;;;;;;5050926;28;20053;-73
2022/09/19 07:05:42;;;;;;;4.10;1.00;;;17.70;64.70;;;;;;5051211;28;20051;-73
2022/09/19 07:08:11;;;;;;;1.42;0.90;;;17.70;64.70;;;;;;5050830;28;20056;-73
2022/09/19 07:10:38;;;;;;;2.63;1.13;;;17.70;64.70;;;;;;5051796;28;20059;-74
2022/09/19 07:13:05;;;;;;;2.30;1.00;;;17.70;64.70;;;;;;5071565;28;20490;-73
2022/09/19 07:15:32;;;;;;;3.22;1.20;;;17.30;66.90;;;;;;5071953;28;20062;-73
2022/09/19 07:17:59;;;;;;;3.40;1.10;;;17.70;64.70;;;;;;5071649;28;20056;-72
2022/09/19 07:20:26;;;;;;;2.15;1.10;;;17.90;67.10;;;;;;5071310;28;20075;-73
2022/09/19 07:23:00;;;;;;;2.67;1.00;;;17.70;64.60;;;;;;5050090;28;20057;-73
2022/09/19 07:25:28;;;;;;;1.70;0.82;;;17.70;64.60;;;;;;5050914;28;20064;-72
2022/09/19 07:27:56;;;;;;;1.33;0.90;;;17.70;64.60;;;;;;5051473;28;20083;-73
2022/09/19 07:30:22;;;;;;;2.72;1.20;;;17.60;67.90;;;;;;5051115;28;20053;-72
2022/09/19 07:32:49;;;;;;;1.95;1.00;;;17.70;64.70;;;;;;5069474;28;20044;-72
2022/09/19 07:35:16;;;;;;;2.38;0.90;;;17.70;64.70;;;;;;5054878;28;20057;-72
2022/09/19 07:37:48;;;;;;;3.65;1.15;;;18.30;67.90;;;;;;5049336;28;20053;-72
2022/09/19 07:40:15;;;;;;;2.33;1.00;;;17.70;67.60;;;;;;5048312;28;20057;-73
2022/09/19 07:42:43;;;;;;;2.60;1.13;;;17.60;64.70;;;;;;5052008;28;20056;-72
2022/09/19 07:45:10;;;;;;;4.20;1.17;;;17.60;64.70;;;;;;5050998;28;20375;-72
2022/09/19 07:47:42;;;;;;;2.03;1.00;;;17.60;64.70;;;;;;5050680;28;20048;-73
2022/09/19 07:50:09;;;;;;;2.25;0.90;;;17.70;64.70;;;;;;5051835;28;20636;-72
2022/09/19 07:52:36;;;;;;;1.90;0.93;;;17.70;64.80;;;;;;5052266;28;20136;-73
2022/09/19 07:55:03;;;;;;;2.92;1.10;;;17.70;64.80;;;;;;5050867;28;20057;-73
2022/09/19 07:57:30;;;;;;;3.20;0.90;;;17.70;64.70;;;;;;5050711;28;20057;-73
2022/09/19 07:59:58;;;;;;;5.38;1.30;;;17.70;64.70;;;;;;5050714;28;20057;-73
2022/09/19 08:02:25;;;;;;;2.70;1.02;;;17.70;64.80;;;;;;5064829;28;20453;-73
2022/09/19 08:04:52;;;;;;;3.42;1.15;;;17.70;64.80;;;;;;5070986;28;20055;-72
2022/09/19 08:07:19;;;;;;;2.97;1.02;;;17.70;64.70;;;;;;5052203;28;20067;-71
2022/09/19 08:09:45;;;;;;;2.00;1.08;;;17.70;67.60;;;;;;5051249;28;20048;-71
2022/09/19 08:12:12;;;;;;;3.35;1.00;;;17.80;64.70;;;;;;5053368;28;20574;-71
2022/09/19 08:14:39;;;;;;;4.07;1.10;;;17.70;64.60;;;;;;5051880;28;20056;-72
2022/09/19 08:17:07;;;;;;;2.70;0.95;;;17.80;64.60;;;;;;5051798;28;20117;-73
2022/09/19 08:19:34;;;;;;;2.95;0.82;;;17.30;66.90;;;;;;5050475;28;20052;-70
2022/09/19 08:22:00;;;;;;;4.20;1.35;;;17.80;64.50;;;;;;5050344;28;20048;-71
2022/09/19 08:24:27;;;;;;;7.07;1.60;;;17.80;64.60;;;;;;5050367;28;20053;-71
2022/09/19 08:26:56;;;;;;;7.75;1.88;;;17.80;67.20;;;;;;5049965;28;20052;-71
2022/09/19 08:29:23;;;;;;;6.20;1.17;;;17.80;64.60;;;;;;5049754;28;20053;-73
2022/09/19 08:31:51;;;;;;;4.00;1.40;;;17.80;64.60;;;;;;5051085;28;20045;-71
2022/09/19 08:34:19;;;;;;;4.82;1.33;;;17.80;64.50;;;;;;5052101;28;20410;-71
2022/09/19 08:36:46;;;;;;;3.90;1.48;;;17.80;64.50;;;;;;5053790;28;20059;-72
2022/09/19 08:39:13;;;;;;;3.65;1.30;;;17.80;64.40;;;;;;5055673;28;20417;-72
2022/09/19 08:41:53;;;;;;;2.92;1.35;;;17.80;64.50;;;;;;5055536;28;20048;-72
2022/09/19 08:44:24;;;;;;;4.35;1.10;;;17.80;64.40;;;;;;5054415;28;20505;-71
2022/09/19 08:46:53;;;;;;;4.22;1.40;;;16.80;66.70;;;;;;5054722;28;20055;-71
2022/09/19 08:49:22;;;;;;;3.67;1.13;;;17.80;64.50;;;;;;5053863;28;20052;-72
2022/09/19 08:51:53;;;;;;;4.63;1.50;;;17.80;64.50;;;;;;5054107;28;20441;-71
2022/09/19 08:54:23;;;;;;;5.45;1.90;;;17.80;64.50;;;;;;5053134;28;20057;-72
2022/09/19 08:56:50;;;;;;;7.22;2.00;;;17.20;67.30;;;;;;5053648;28;20072;-71
2022/09/19 08:59:20;;;;;;;9.27;2.88;;;17.80;64.40;;;;;;5053466;28;20053;-72
2022/09/19 09:01:47;;;;;;;6.28;1.98;;;17.80;64.40;;;;;;5056136;28;20106;-72
2022/09/19 09:04:23;;;;;;;8.13;2.08;;;17.80;64.40;;;;;;5053649;28;20052;-72
2022/09/19 09:06:58;;;;;;;7.50;2.00;;;17.80;64.50;;;;;;5054681;28;20450;-72
2022/09/19 09:09:29;;;;;;;10.90;2.40;;;17.90;64.60;;;;;;5053134;28;20136;-72
2022/09/19 09:11:59;;;;;;;6.88;1.90;;;17.80;67.40;;;;;;5051590;28;20482;-72
2022/09/19 09:14:29;;;;;;;7.65;1.70;;;17.80;64.40;;;;;;5053200;28;20063;-72
2022/09/19 09:17:05;;;;;;;7.97;2.10;;;17.90;64.50;;;;;;5051483;28;20055;-72
2022/09/19 09:19:52;;;;;;;5.93;1.80;;;17.90;64.50;;;;;;5050577;28;20076;-71
2022/09/19 09:22:21;;;;;;;8.95;2.40;;;17.90;64.50;;;;;;5052871;28;20152;-72
2022/09/19 09:24:51;;;;;;;8.77;2.38;;;17.80;64.60;;;;;;5055515;28;20057;-72
2022/09/19 09:27:20;;;;;;;5.00;1.77;;;17.80;64.60;;;;;;5053337;28;20110;-72
2022/09/19 09:29:50;;;;;;;4.93;1.58;;;17.90;64.60;;;;;;5053252;28;20170;-72
2022/09/19 09:32:19;;;;;;;7.70;2.47;;;17.90;64.60;;;;;;5056083;28;20494;-71
2022/09/19 09:34:49;;;;;;;6.93;2.28;;;17.90;64.60;;;;;;5053116;28;20052;-72
2022/09/19 09:37:20;;;;;;;9.93;2.83;;;17.90;64.70;;;;;;5050709;28;20098;-72
2022/09/19 09:39:59;;;;;;;7.88;2.30;;;17.90;64.80;;;;;;5053336;28;20103;-71
2022/09/19 09:42:28;;;;;;;8.25;2.50;;;17.30;67.00;;;;;;5053257;28;20055;-73
2022/09/19 09:44:58;;;;;;;11.07;2.50;;;17.90;64.90;;;;;;5052067;28;20538;-73
2022/09/19 09:47:33;;;;;;;8.25;2.08;;;17.90;64.90;;;;;;5053397;28;20063;-73
2022/09/19 09:50:06;;;;;;;7.32;2.33;;;17.90;65.00;;;;;;5053157;28;20087;-71
2022/09/19 09:52:36;;;;;;;6.53;2.47;;;18.00;65.10;;;;;;5053066;28;20063;-71
2022/09/19 09:58:07;;;;;;;6.35;2.03;;;18.00;65.30;;;;;;5053075;28;20402;-71
2022/09/19 10:03:35;;;;;;;6.78;2.10;;;18.00;65.20;;;;;;5051079;28;20053;-71
2022/09/19 10:06:06;;;;;;;6.43;2.10;;;18.00;65.20;;;;;;5051817;28;20057;-71
2022/09/19 10:08:37;;;;;;;4.38;1.58;;;18.00;65.10;;;;;;5048889;28;20103;-72
2022/09/19 10:11:06;;;;;;;7.00;1.80;;;18.10;65.10;;;;;;5040610;28;20117;-72
2022/09/19 10:13:39;;;;;;;6.32;1.70;;;18.00;65.10;;;;;;5037818;28;20297;-72
2022/09/19 10:16:06;;;;;;;4.00;1.60;;;18.10;65.20;;;;;;5038829;28;20071;-72
2022/09/19 10:18:38;;;;;;;6.25;1.70;;;18.00;65.20;;;;;;5038902;28;20064;-72
2022/09/19 10:21:05;;;;;;;7.20;2.20;;;18.00;65.20;;;;;;5070476;28;20079;-72
2022/09/19 10:23:32;;;;;;;6.13;1.58;;;18.30;67.50;;;;;;5061616;28;20049;-72
2022/09/19 10:26:02;;;;;;;8.25;1.83;;;17.10;67.00;;;;;;5050662;28;20098;-72
2022/09/19 10:28:32;;;;;;;6.05;1.92;;;17.90;67.50;;;;;;5050586;28;20049;-71
2022/09/19 10:30:59;;;;;;;5.32;1.70;;;18.10;65.10;;;;;;5040116;28;20052;-71
2022/09/19 10:33:29;;;;;;;4.22;1.60;;;18.10;65.10;;;;;;5049529;28;20056;-72
2022/09/19 10:35:58;;;;;;;4.30;1.73;;;18.10;65.10;;;;;;5064397;28;20090;-73
2022/09/19 10:38:26;;;;;;;5.95;1.80;;;18.20;65.20;;;;;;5065220;28;20416;-73
2022/09/19 10:40:56;;;;;;;8.43;1.95;;;18.10;65.00;;;;;;5063223;28;20056;-72
2022/09/19 10:43:26;;;;;;;6.95;1.83;;;18.20;65.00;;;;;;5056738;28;20053;-71
2022/09/19 10:45:53;;;;;;;6.78;1.52;;;18.10;65.00;;;;;;5066174;28;20059;-73
2022/09/19 10:48:22;;;;;;;4.90;1.80;;;18.20;67.50;;;;;;5060398;28;20060;-72
2022/09/19 10:50:48;;;;;;;6.18;1.77;;;18.20;65.10;;;;;;5038143;28;20063;-72
2022/09/19 10:53:19;;;;;;;5.40;1.73;;;18.20;65.20;;;;;;5036338;28;20053;-72
2022/09/19 10:55:47;;;;;;;6.30;1.60;;;17.10;67.00;;;;;;5038379;28;20058;-72
2022/09/19 10:58:16;;;;;;;3.65;1.52;;;18.20;65.30;;;;;;5050983;28;20052;-72
2022/09/19 11:00:51;;;;;;;3.85;1.35;;;18.10;65.20;;;;;;5061787;28;20087;-72
2022/09/19 11:03:23;;;;;;;4.45;1.60;;;17.50;67.50;;;;;;5058741;28;20049;-72
2022/09/19 11:06:03;;;;;;;5.15;1.58;;;18.10;65.20;;;;;;5047695;28;20060;-73
2022/09/19 11:08:30;;;;;;;4.47;1.30;;;18.10;65.10;;;;;;5045732;28;20048;-72
2022/09/19 11:10:58;;;;;;;6.55;1.52;;;18.10;65.20;;;;;;5036991;28;20048;-72
2022/09/19 11:13:25;;;;;;;4.85;1.40;;;18.20;67.70;;;;;;5053203;28;20128;-72
2022/09/19 11:16:02;;;;;;;3.60;1.30;;;18.20;65.10;;;;;;5037573;28;20056;-72
2022/09/19 11:18:35;;;;;;;3.65;1.40;;;18.20;67.50;;;;;;5046846;28;20129;-72
2022/09/19 11:21:07;;;;;;;3.60;1.38;;;18.20;65.00;;;;;;5052538;28;20115;-71
2022/09/19 11:24:01;;;;;;;3.78;1.83;;;18.30;65.10;;;;;;5053442;28;20056;-72
2022/09/19 11:26:39;;;;;;;4.95;1.52;;;18.30;65.00;;;;;;5062035;28;20052;-72
2022/09/19 11:29:23;;;;;;;3.25;1.50;;;18.30;65.00;;;;;;5059208;28;20569;-72
2022/09/19 11:32:03;;;;;;;4.75;1.60;;;18.40;65.10;;;;;;5064957;28;20049;-72
2022/09/19 11:34:35;;;;;;;3.88;1.42;;;18.50;67.40;;;;;;5050934;28;20135;-73
2022/09/19 11:37:06;;;;;;;3.45;1.35;;;18.50;67.50;;;;;;5049414;28;20136;-72
2022/09/19 11:39:41;;;;;;;3.95;1.40;;;18.50;64.90;;;;;;5050943;28;20052;-72
2022/09/19 11:42:17;;;;;;;6.30;1.45;;;18.50;67.60;;;;;;5060288;28;20127;-72
2022/09/19 11:44:52;;;;;;;3.65;1.40;;;18.50;64.90;;;;;;5069615;28;20497;-72
2022/09/19 11:47:45;;;;;;;3.45;1.25;;;17.90;67.10;;;;;;5072278;28;20066;-72
2022/09/19 11:50:21;;;;;;;4.68;1.45;;;18.60;68.00;;;;;;5071202;28;20131;-72
2022/09/19 11:52:55;;;;;;;6.20;1.42;;;18.50;64.90;;;;;;5058619;28;20079;-72
2022/09/19 11:55:29;;;;;;;5.37;1.60;;;18.50;67.70;;;;;;5050476;28;20143;-71
2022/09/19 11:58:03;;;;;;;2.63;1.33;;;18.70;67.50;;;;;;5051276;28;20346;-71
2022/09/19 12:00:30;;;;;;;5.53;1.73;;;18.50;64.90;;;;;;5049951;28;20057;-71
2022/09/19 12:03:10;;;;;;;2.78;1.10;;;18.40;64.90;;;;;;5064454;28;20059;-72
2022/09/19 12:05:45;;;;;;;3.58;1.20;;;18.40;64.80;;;;;;5071215;28;20521;-72
2022/09/19 12:08:16;;;;;;;;;;;18.40;64.80;;;;;;5071636;28;20130;-72
2022/09/19 12:10:44;;;;;;;2.85;1.45;;;18.40;64.80;;;;;;5070750;28;19921;-72
2022/09/19 12:13:14;;;;;;;3.40;1.13;;;18.40;64.90;;;;;;5055299;28;20064;-71
2022/09/19 12:15:44;;;;;;;5.65;1.40;;;18.40;64.80;;;;;;5052373;28;20127;-71
2022/09/19 12:18:14;;;;;;;4.20;1.35;;;17.80;67.20;;;;;;5052056;28;20379;-72
2022/09/19 12:20:43;;;;;;;3.95;1.30;;;17.90;67.20;;;;;;5050696;28;20053;-72
2022/09/19 12:25:58;;;;;;;3.70;1.42;;;18.50;64.70;;;;;;5050650;28;20052;-71
2022/09/19 12:28:26;;;;;;;1.95;1.10;;;18.50;64.70;;;;;;5050066;28;20059;-71
2022/09/19 12:30:55;;;;;;;2.92;1.30;;;18.50;64.60;;;;;;5050716;28;20114;-72
2022/09/19 12:33:28;;;;;;;3.58;1.17;;;18.50;64.60;;;;;;5051462;28;20061;-72
2022/09/19 12:35:57;;;;;;;2.00;1.10;;;18.40;67.10;;;;;;5047169;28;20056;-72
2022/09/19 12:38:25;;;;;;;3.60;1.15;;;18.50;64.60;;;;;;5050636;28;20067;-72
2022/09/19 12:40:54;;;;;;;2.95;1.17;;;18.60;64.70;;;;;;5050959;28;20063;-72
2022/09/19 12:43:26;;;;;;;3.97;1.38;;;18.60;64.70;;;;;;5049985;28;20049;-72
2022/09/19 12:45:55;;;;;;;6.03;1.55;;;18.60;64.70;;;;;;5050023;28;20383;-72
2022/09/19 12:48:27;;;;;;;2.90;1.10;;;18.60;64.70;;;;;;5052655;28;20061;-72
2022/09/19 12:50:54;;;;;;;3.58;1.27;;;18.60;64.70;;;;;;5064182;28;20130;-73
2022/09/19 12:53:27;;;;;;;4.13;1.13;;;18.60;64.70;;;;;;5050755;28;20457;-72
2022/09/19 12:56:02;;;;;;;2.42;1.20;;;18.60;67.30;;;;;;5050000;28;20049;-72
2022/09/19 12:58:33;;;;;;;3.60;1.30;;;18.60;64.60;;;;;;5047670;28;20056;-72
2022/09/19 13:01:12;;;;;;;4.00;1.63;;;18.60;64.60;;;;;;5049328;28;20508;-72
2022/09/19 13:03:43;;;;;;;3.78;1.30;;;18.70;64.60;;;;;;5049695;28;20095;-72
2022/09/19 13:06:11;;;;;;;3.92;1.38;;;18.70;64.60;;;;;;5049675;28;20077;-72
2022/09/19 13:08:40;;;;;;;3.30;1.20;;;18.60;64.50;;;;;;5048887;28;20045;-72
2022/09/19 13:11:09;;;;;;;3.30;1.02;;;18.60;64.50;;;;;;5045780;28;20041;-72
2022/09/19 13:13:37;;;;;;;1.92;1.00;;;18.60;64.50;;;;;;5049831;28;20117;-72
2022/09/19 13:16:06;;;;;;;1.70;0.95;;;18.60;64.40;;;;;;5049576;28;20051;-72